createdAt,value
2022-10-17T00:02:15.763Z,18.77
2022-10-17T00:04:42.963Z,14.60
2022-10-17T00:07:10.071Z,17.23
2022-10-17T00:09:37.186Z,16.23
2022-10-17T00:12:04.366Z,17.58
2022-10-17T00:14:31.623Z,17.20
2022-10-17T00:16:58.730Z,19.05
2022-10-17T00:19:25.815Z,17.25
2022-10-17T00:21:53.048Z,16.60
2022-10-17T00:24:20.155Z,15.20
2022-10-17T00:26:47.204Z,15.85
2022-10-17T00:29:14.296Z,15.65
2022-10-17T00:31:47.791Z,19.33
2022-10-17T00:34:14.998Z,15.95
2022-10-17T00:36:42.147Z,16.45
2022-10-17T00:39:09.889Z,16.52
2022-10-17T00:41:36.977Z,17.35
2022-10-17T00:44:08.020Z,16.40
2022-10-17T00:46:39.468Z,16.98
2022-10-17T00:49:10.774Z,18.90
2022-10-17T00:51:42.245Z,19.23
2022-10-17T00:54:10.567Z,17.63
2022-10-17T00:56:38.314Z,16.48
2022-10-17T01:01:33.540Z,16.20
2022-10-17T01:04:00.819Z,18.27
2022-10-17T01:06:27.954Z,19.65
2022-10-17T01:08:55.184Z,17.92
2022-10-17T01:11:28.576Z,17.48
2022-10-17T01:14:11.323Z,18.83
2022-10-17T01:16:52.608Z,17.10
2022-10-17T01:19:31.694Z,16.50
2022-10-17T01:22:23.219Z,19.13
2022-10-17T01:25:01.735Z,13.90
2022-10-17T01:27:44.716Z,17.73
2022-10-17T01:30:27.618Z,16.50
2022-10-17T01:32:57.567Z,19.02
2022-10-17T01:35:32.633Z,17.45
2022-10-17T01:38:23.079Z,14.57
2022-10-17T01:41:00.937Z,15.73
2022-10-17T01:43:42.111Z,15.52
2022-10-17T01:46:09.167Z,17.88
2022-10-17T01:48:37.471Z,17.35
2022-10-17T01:51:08.913Z,16.48
2022-10-17T01:53:40.058Z,15.45
2022-10-17T01:56:09.043Z,19.45
2022-10-17T01:58:38.971Z,18.88
2022-10-17T02:01:10.484Z,20.23
2022-10-17T02:03:38.334Z,18.48
2022-10-17T02:06:06.579Z,16.30
2022-10-17T02:08:46.112Z,17.83
2022-10-17T02:11:21.343Z,19.90
2022-10-17T02:14:13.276Z,18.90
2022-10-17T02:16:55.132Z,18.80
2022-10-17T02:19:22.205Z,19.30
2022-10-17T02:22:02.539Z,18.15
2022-10-17T02:24:32.757Z,19.17
2022-10-17T02:29:30.027Z,21.60
2022-10-17T02:32:01.950Z,18.80
2022-10-17T02:34:32.268Z,20.63
2022-10-17T02:37:01.233Z,19.45
2022-10-17T02:39:29.468Z,19.83
2022-10-17T02:41:58.603Z,23.52
2022-10-17T02:44:26.251Z,21.48
2022-10-17T02:46:56.711Z,18.73
2022-10-17T02:49:26.715Z,20.77
2022-10-17T02:52:13.247Z,26.08
2022-10-17T02:54:46.641Z,19.05
2022-10-17T02:57:25.968Z,19.88
2022-10-17T02:59:53.250Z,22.67
2022-10-17T03:02:22.506Z,23.65
2022-10-17T03:04:50.905Z,21.33
2022-10-17T03:07:18.167Z,19.15
2022-10-17T03:09:45.375Z,19.17
2022-10-17T03:12:12.499Z,21.30
2022-10-17T03:14:39.821Z,17.92
2022-10-17T03:17:07.109Z,21.05
2022-10-17T03:19:35.746Z,20.77
2022-10-17T03:22:04.034Z,15.52
2022-10-17T03:24:33.581Z,16.88
2022-10-17T03:27:00.949Z,19.85
2022-10-17T03:29:28.290Z,15.48
2022-10-17T03:31:56.004Z,17.08
2022-10-17T03:34:23.422Z,16.00
2022-10-17T03:36:50.801Z,18.25
2022-10-17T03:39:19.340Z,17.00
2022-10-17T03:41:47.007Z,17.70
2022-10-17T03:44:15.092Z,17.20
2022-10-17T03:46:42.380Z,15.02
2022-10-17T03:49:09.950Z,15.65
2022-10-17T03:51:37.226Z,15.75
2022-10-17T03:54:09.631Z,16.20
2022-10-17T03:56:37.231Z,15.35
2022-10-17T03:59:07.986Z,20.00
2022-10-17T04:01:37.778Z,14.38
2022-10-17T04:04:05.276Z,16.13
2022-10-17T04:06:35.294Z,16.42
2022-10-17T04:09:02.572Z,15.32
2022-10-17T04:11:46.480Z,17.50
2022-10-17T04:14:14.604Z,16.35
2022-10-17T04:16:42.703Z,15.07
2022-10-17T04:19:15.480Z,20.35
2022-10-17T04:21:46.419Z,15.70
2022-10-17T04:24:14.975Z,16.58
2022-10-17T04:26:45.066Z,17.48
2022-10-17T04:29:13.492Z,16.02
2022-10-17T04:31:42.929Z,16.52
2022-10-17T04:34:23.779Z,17.58
2022-10-17T04:36:52.034Z,19.90
2022-10-17T04:39:19.933Z,18.02
2022-10-17T04:41:47.455Z,14.55
2022-10-17T04:44:15.030Z,18.58
2022-10-17T04:46:47.895Z,13.43
2022-10-17T04:49:15.059Z,15.15
2022-10-17T04:51:44.684Z,17.52
2022-10-17T04:54:19.440Z,15.80
2022-10-17T04:56:50.785Z,19.60
2022-10-17T04:59:17.937Z,15.90
2022-10-17T05:01:46.787Z,14.07
2022-10-17T05:04:13.986Z,12.93
2022-10-17T05:06:41.156Z,14.48
2022-10-17T05:09:38.985Z,18.15
2022-10-17T05:12:09.457Z,17.08
2022-10-17T05:14:43.072Z,14.65
2022-10-17T05:17:10.355Z,14.23
2022-10-17T05:19:40.233Z,14.45
2022-10-17T05:22:10.175Z,16.55
2022-10-17T05:24:37.287Z,15.90
2022-10-17T05:27:04.571Z,17.23
2022-10-17T05:29:32.770Z,15.00
2022-10-17T05:32:10.686Z,14.70
2022-10-17T05:34:38.439Z,16.05
2022-10-17T05:37:06.193Z,17.10
2022-10-17T05:39:34.400Z,12.55
2022-10-17T05:42:01.727Z,14.30
2022-10-17T05:44:29.158Z,13.90
2022-10-17T05:46:59.755Z,15.30
2022-10-17T05:49:45.072Z,13.32
2022-10-17T05:52:13.518Z,14.40
2022-10-17T05:54:57.863Z,16.55
2022-10-17T05:57:26.230Z,16.45
2022-10-17T05:59:53.618Z,15.27
2022-10-17T06:02:21.982Z,16.95
2022-10-17T06:04:50.081Z,14.20
2022-10-17T06:07:19.280Z,15.02
2022-10-17T06:09:47.628Z,14.60
2022-10-17T06:12:15.354Z,16.42
2022-10-17T06:14:43.039Z,18.85
2022-10-17T06:17:15.797Z,15.32
2022-10-17T06:19:44.730Z,14.55
2022-10-17T06:22:13.468Z,14.68
2022-10-17T06:24:40.780Z,13.90
2022-10-17T06:27:11.037Z,17.65
2022-10-17T06:29:39.227Z,14.90
2022-10-17T06:32:08.704Z,18.65
2022-10-17T06:34:38.604Z,15.90
2022-10-17T06:37:05.999Z,15.35
2022-10-17T06:39:35.969Z,13.48
2022-10-17T06:42:07.490Z,14.70
2022-10-17T06:44:53.456Z,13.77
2022-10-17T06:47:37.098Z,19.85
2022-10-17T06:50:15.048Z,12.20
2022-10-17T06:52:51.214Z,15.25
2022-10-17T06:55:37.175Z,13.55
2022-10-17T06:58:17.760Z,13.45
2022-10-17T07:01:01.119Z,15.82
2022-10-17T07:03:29.087Z,15.00
2022-10-17T07:05:57.360Z,11.77
2022-10-17T07:08:24.716Z,13.70
2022-10-17T07:10:54.692Z,15.93
2022-10-17T07:13:23.672Z,12.93
2022-10-17T07:15:51.231Z,17.45
2022-10-17T07:18:18.807Z,14.82
2022-10-17T07:20:52.936Z,12.98
2022-10-17T07:23:20.152Z,15.13
2022-10-17T07:25:48.947Z,15.07
2022-10-17T07:28:17.616Z,16.13
2022-10-17T07:30:45.570Z,14.57
2022-10-17T07:33:14.000Z,15.15
2022-10-17T07:35:41.267Z,14.50
2022-10-17T07:38:08.854Z,13.18
2022-10-17T07:40:36.178Z,14.95
2022-10-17T07:43:03.390Z,13.88
2022-10-17T07:45:31.411Z,13.65
2022-10-17T07:47:58.995Z,13.95
2022-10-17T07:50:40.200Z,15.82
2022-10-17T07:53:07.378Z,15.43
2022-10-17T07:55:34.766Z,14.68
2022-10-17T07:58:01.877Z,14.52
2022-10-17T08:00:28.605Z,15.57
2022-10-17T08:02:55.668Z,13.80
2022-10-17T08:05:22.936Z,14.52
2022-10-17T08:07:59.567Z,14.50
2022-10-17T08:10:28.431Z,17.90
2022-10-17T08:12:57.764Z,15.18
2022-10-17T08:15:29.449Z,12.98
2022-10-17T08:17:59.386Z,16.48
2022-10-17T08:20:26.608Z,14.27
2022-10-17T08:22:54.404Z,37.47
2022-10-17T08:25:21.791Z,15.30
2022-10-17T08:27:50.429Z,10.27
2022-10-17T08:30:17.628Z,15.82
2022-10-17T08:32:45.332Z,16.33
2022-10-17T08:35:14.834Z,15.68
2022-10-17T08:37:42.159Z,16.77
2022-10-17T08:40:18.989Z,17.73
2022-10-17T08:42:52.565Z,17.95
2022-10-17T08:45:32.954Z,13.02
2022-10-17T08:48:01.228Z,12.35
2022-10-17T08:50:31.691Z,13.60
2022-10-17T08:53:06.395Z,18.38
2022-10-17T08:55:41.443Z,14.63
2022-10-17T08:58:33.323Z,18.17
2022-10-17T09:01:10.526Z,17.25
2022-10-17T09:03:54.757Z,18.70
2022-10-17T09:06:30.000Z,17.05
2022-10-17T09:09:05.158Z,19.73
2022-10-17T09:12:14.123Z,21.27
2022-10-17T09:14:44.300Z,19.35
2022-10-17T09:17:16.963Z,20.27
2022-10-17T09:19:50.002Z,20.33
2022-10-17T09:22:22.375Z,19.58
2022-10-17T09:25:00.609Z,21.33
2022-10-17T09:27:32.776Z,21.00
2022-10-17T09:30:27.046Z,18.30
2022-10-17T09:33:28.493Z,18.63
2022-10-17T09:36:09.009Z,20.38
2022-10-17T09:38:41.276Z,18.30
2022-10-17T09:41:32.379Z,20.95
2022-10-17T09:44:44.408Z,19.27
2022-10-17T09:47:15.975Z,20.73
2022-10-17T09:49:45.780Z,17.58
2022-10-17T09:52:17.739Z,20.17
2022-10-17T09:54:50.438Z,17.83
2022-10-17T09:57:18.936Z,16.40
2022-10-17T09:59:55.905Z,19.17
2022-10-17T10:02:24.081Z,15.35
2022-10-17T10:05:07.131Z,15.95
2022-10-17T10:07:37.501Z,19.40
2022-10-17T10:12:34.271Z,18.92
2022-10-17T10:15:01.551Z,19.67
2022-10-17T10:17:41.508Z,19.45
2022-10-17T10:20:31.856Z,19.80
2022-10-17T10:23:12.121Z,18.52
2022-10-17T10:25:39.373Z,18.85
2022-10-17T10:28:11.776Z,18.45
2022-10-17T10:30:40.017Z,17.60
2022-10-17T10:33:11.427Z,17.45
2022-10-17T10:35:38.562Z,17.42
2022-10-17T10:38:12.373Z,22.83
2022-10-17T10:40:48.035Z,18.60
2022-10-17T10:43:37.727Z,14.60
2022-10-17T10:46:17.077Z,19.52
2022-10-17T10:48:59.676Z,16.88
2022-10-17T10:51:35.561Z,18.73
2022-10-17T10:54:24.119Z,17.33
2022-10-17T10:56:54.670Z,14.93
2022-10-17T10:59:30.374Z,19.52
2022-10-17T11:02:27.526Z,16.63
2022-10-17T11:05:35.326Z,16.25
2022-10-17T11:08:12.961Z,15.23
2022-10-17T11:10:51.704Z,14.55
2022-10-17T11:13:28.839Z,10.80
2022-10-17T11:16:04.653Z,10.50
2022-10-17T11:18:44.698Z,14.77
2022-10-17T11:21:22.295Z,14.10
2022-10-17T11:23:58.866Z,12.35
2022-10-17T11:26:32.419Z,12.13
2022-10-17T11:29:04.075Z,11.35
2022-10-17T11:31:41.627Z,13.60
2022-10-17T11:34:27.006Z,14.15
2022-10-17T11:37:01.180Z,15.73
2022-10-17T11:39:49.245Z,14.13
2022-10-17T11:42:39.358Z,15.18
2022-10-17T11:45:13.911Z,14.38
2022-10-17T11:47:46.780Z,18.20
2022-10-17T11:53:13.251Z,12.00
2022-10-17T11:55:41.607Z,14.73
2022-10-17T11:58:37.575Z,13.55
2022-10-17T12:01:24.530Z,15.38
2022-10-17T12:04:03.396Z,12.73
2022-10-17T12:06:39.108Z,9.63
2022-10-17T12:09:11.655Z,10.45
2022-10-17T12:11:56.985Z,13.48
2022-10-17T12:15:02.372Z,14.25
2022-10-17T12:17:39.204Z,15.65
2022-10-17T12:20:21.600Z,16.15
2022-10-17T12:22:51.171Z,13.13
2022-10-17T12:25:33.572Z,11.20
2022-10-17T12:30:37.767Z,11.15
2022-10-17T12:33:22.204Z,10.55
2022-10-17T12:35:51.410Z,11.60
2022-10-17T12:38:18.504Z,13.77
2022-10-17T12:40:49.081Z,10.75
2022-10-17T12:43:16.267Z,11.55
2022-10-17T12:45:48.295Z,9.77
2022-10-17T12:48:37.390Z,12.48
2022-10-17T12:54:02.356Z,10.07
2022-10-17T12:56:39.641Z,10.30
2022-10-17T12:59:15.764Z,11.68
2022-10-17T13:01:47.350Z,13.98
2022-10-17T13:04:18.367Z,11.65
2022-10-17T13:06:54.093Z,10.63
2022-10-17T13:09:31.255Z,9.90
2022-10-17T13:12:00.150Z,11.43
2022-10-17T13:14:27.776Z,11.82
2022-10-17T13:17:03.001Z,11.13
2022-10-17T13:19:42.608Z,11.70
2022-10-17T13:22:19.735Z,11.43
2022-10-17T13:24:47.211Z,10.75
2022-10-17T13:27:24.780Z,15.60
2022-10-17T13:29:51.923Z,12.52
2022-10-17T13:32:19.025Z,12.45
2022-10-17T13:34:46.116Z,13.95
2022-10-17T13:37:15.203Z,13.00
2022-10-17T13:39:54.882Z,12.43
2022-10-17T13:42:29.616Z,16.83
2022-10-17T13:44:58.226Z,17.58
2022-10-17T13:47:32.234Z,13.95
2022-10-17T13:49:59.767Z,19.85
2022-10-17T13:52:29.973Z,15.07
2022-10-17T13:55:09.732Z,10.15
2022-10-17T13:57:36.792Z,13.43
2022-10-17T14:00:11.383Z,14.07
2022-10-17T14:02:43.042Z,18.48
2022-10-17T14:05:17.684Z,13.93
2022-10-17T14:08:10.017Z,13.82
2022-10-17T14:10:38.044Z,13.95
2022-10-17T14:13:10.401Z,13.88
2022-10-17T14:15:37.637Z,13.30
2022-10-17T14:18:08.370Z,16.00
2022-10-17T14:23:42.408Z,12.13
2022-10-17T14:26:13.945Z,15.68
2022-10-17T14:28:43.073Z,16.25
2022-10-17T14:31:31.840Z,19.45
2022-10-17T14:34:00.830Z,16.80
2022-10-17T14:36:38.290Z,21.02
2022-10-17T14:39:13.368Z,13.93
2022-10-17T14:41:44.574Z,16.38
2022-10-17T14:44:25.628Z,16.70
2022-10-17T14:46:59.176Z,20.20
2022-10-17T14:49:41.095Z,16.95
2022-10-17T14:52:15.116Z,16.95
2022-10-17T14:54:46.953Z,17.85
2022-10-17T14:57:48.908Z,17.42
2022-10-17T15:00:18.340Z,16.77
2022-10-17T15:02:46.080Z,15.95
2022-10-17T15:05:14.161Z,18.95
2022-10-17T15:07:41.957Z,19.88
2022-10-17T15:10:35.712Z,19.05
2022-10-17T15:13:26.815Z,20.55
2022-10-17T15:15:51.911Z,21.23
2022-10-17T15:18:19.151Z,20.27
2022-10-17T15:20:46.268Z,19.63
2022-10-17T15:23:13.331Z,16.48
2022-10-17T15:25:40.687Z,18.05
2022-10-17T15:28:07.947Z,17.45
2022-10-17T15:30:36.764Z,21.73
2022-10-17T15:33:03.908Z,15.93
2022-10-17T15:35:31.182Z,20.55
2022-10-17T15:37:58.279Z,20.75
2022-10-17T15:40:30.480Z,19.98
2022-10-17T15:42:57.545Z,19.27
2022-10-17T15:45:24.970Z,21.40
2022-10-17T15:48:04.084Z,15.77
2022-10-17T15:50:31.191Z,17.85
2022-10-17T15:52:58.446Z,18.65
2022-10-17T15:55:25.758Z,18.75
2022-10-17T15:57:52.859Z,19.70
2022-10-17T16:00:22.740Z,21.23
2022-10-17T16:02:50.276Z,18.42
2022-10-17T16:05:23.688Z,21.63
2022-10-17T16:07:52.583Z,16.27
2022-10-17T16:10:20.455Z,16.63
2022-10-17T16:12:49.687Z,16.85
2022-10-17T16:15:25.024Z,21.60
2022-10-17T16:17:53.168Z,16.40
2022-10-17T16:20:21.162Z,19.13
2022-10-17T16:22:48.692Z,15.90
2022-10-17T16:25:19.866Z,14.52
2022-10-17T16:27:48.188Z,19.75
2022-10-17T16:30:15.656Z,17.60
2022-10-17T16:32:43.463Z,15.00
2022-10-17T16:35:16.259Z,16.27
2022-10-17T16:37:43.457Z,18.95
2022-10-17T16:40:11.099Z,18.75
2022-10-17T16:42:38.246Z,15.57
2022-10-17T16:45:05.388Z,18.27
2022-10-17T16:47:32.114Z,15.93
2022-10-17T16:49:59.522Z,14.60
2022-10-17T16:52:26.806Z,15.18
2022-10-17T16:54:54.224Z,13.93
2022-10-17T16:57:21.336Z,16.27
2022-10-17T16:59:48.549Z,14.10
2022-10-17T17:02:18.919Z,16.92
2022-10-17T17:04:48.377Z,16.38
2022-10-17T17:07:15.124Z,16.20
2022-10-17T17:09:42.540Z,13.77
2022-10-17T17:12:09.760Z,13.98
2022-10-17T17:14:36.898Z,15.32
2022-10-17T17:17:03.969Z,12.30
2022-10-17T17:19:31.019Z,12.30
2022-10-17T17:21:58.046Z,15.57
2022-10-17T17:24:25.494Z,10.93
2022-10-17T17:26:54.195Z,15.57
2022-10-17T17:29:21.563Z,14.00
2022-10-17T17:31:49.227Z,14.45
2022-10-17T17:34:18.113Z,13.18
2022-10-17T17:36:45.904Z,13.45
2022-10-17T17:39:13.919Z,13.15
2022-10-17T17:41:41.968Z,14.23
2022-10-17T17:44:13.976Z,13.10
2022-10-17T17:46:43.727Z,14.63
2022-10-17T17:49:11.676Z,17.38
2022-10-17T17:51:42.278Z,16.63
2022-10-17T17:54:12.579Z,15.75
2022-10-17T17:56:39.925Z,16.63
2022-10-17T17:59:07.021Z,18.75
2022-10-17T18:01:38.913Z,14.07
2022-10-17T18:04:08.453Z,14.05
2022-10-17T18:06:36.434Z,12.93
2022-10-17T18:09:03.979Z,11.35
2022-10-17T18:11:31.418Z,14.57
2022-10-17T18:14:00.010Z,22.17
2022-10-17T18:16:32.007Z,18.17
2022-10-17T18:19:04.066Z,18.25
2022-10-17T18:21:33.931Z,27.33
2022-10-17T18:24:01.560Z,16.35
2022-10-17T18:26:28.935Z,16.40
2022-10-17T18:28:56.577Z,15.80
2022-10-17T18:31:29.427Z,16.58
2022-10-17T18:33:57.639Z,17.60
2022-10-17T18:36:26.310Z,19.38
2022-10-17T18:38:54.031Z,19.42
2022-10-17T18:41:22.915Z,18.58
2022-10-17T18:43:50.991Z,19.95
2022-10-17T18:46:21.903Z,19.05
2022-10-17T18:48:49.595Z,17.75
2022-10-17T18:51:18.876Z,17.38
2022-10-17T18:53:47.455Z,21.02
2022-10-17T18:56:15.032Z,23.58
2022-10-17T18:58:42.521Z,20.27
2022-10-17T19:01:17.554Z,19.05
2022-10-17T19:03:45.888Z,18.55
2022-10-17T19:06:15.306Z,17.13
2022-10-17T19:08:42.842Z,21.15
2022-10-17T19:11:11.537Z,24.58
2022-10-17T19:13:39.449Z,16.63
2022-10-17T19:16:10.894Z,18.60
2022-10-17T19:18:38.363Z,16.70
2022-10-17T19:21:06.794Z,20.00
2022-10-17T19:23:35.830Z,18.40
2022-10-17T19:26:08.349Z,24.58
2022-10-17T19:28:36.338Z,22.73
2022-10-17T19:31:04.112Z,32.55
2022-10-17T19:33:31.874Z,31.15
2022-10-17T19:36:02.884Z,25.42
2022-10-17T19:38:30.035Z,25.73
2022-10-17T19:40:57.186Z,24.20
2022-10-17T19:43:25.654Z,28.55
2022-10-17T19:45:57.290Z,28.40
2022-10-17T19:48:25.155Z,32.13
2022-10-17T19:50:53.162Z,27.13
2022-10-17T19:53:21.008Z,29.52
2022-10-17T19:55:48.256Z,30.95
2022-10-17T19:58:14.975Z,37.28
2022-10-17T20:00:52.424Z,35.03
2022-10-17T20:03:19.602Z,30.35
2022-10-17T20:05:46.568Z,34.70
2022-10-17T20:08:14.163Z,34.50
2022-10-17T20:10:41.857Z,34.03
2022-10-17T20:13:09.208Z,34.90
2022-10-17T20:15:36.860Z,33.15
2022-10-17T20:18:04.369Z,36.15
2022-10-17T20:20:31.707Z,37.55
2022-10-17T20:22:58.767Z,32.22
2022-10-17T20:25:25.936Z,39.00
2022-10-17T20:27:53.568Z,36.90
2022-10-17T20:30:20.708Z,38.55
2022-10-17T20:32:47.761Z,40.05
2022-10-17T20:35:14.813Z,43.00
2022-10-17T20:37:42.811Z,41.67
2022-10-17T20:40:33.527Z,46.67
2022-10-17T20:42:57.008Z,38.95
2022-10-17T20:45:37.507Z,41.72
2022-10-17T20:48:15.538Z,49.67
2022-10-17T20:50:43.408Z,44.30
2022-10-17T20:53:35.449Z,49.35
2022-10-17T20:56:06.788Z,45.10
2022-10-17T20:58:33.882Z,48.45
2022-10-17T21:01:06.165Z,48.67
2022-10-17T21:03:39.763Z,51.45
2022-10-17T21:08:36.858Z,45.97
2022-10-17T21:11:10.070Z,42.47
2022-10-17T21:13:37.436Z,49.17
2022-10-17T21:16:05.455Z,53.30
2022-10-17T21:18:32.498Z,48.03
2022-10-17T21:21:09.702Z,49.90
2022-10-17T21:23:36.930Z,49.38
2022-10-17T21:26:04.291Z,56.38
2022-10-17T21:28:31.427Z,53.40
2022-10-17T21:31:07.601Z,46.90
2022-10-17T21:33:34.714Z,55.03
2022-10-17T21:36:01.814Z,41.28
2022-10-17T21:38:31.357Z,51.92
2022-10-17T21:40:58.531Z,50.65
2022-10-17T21:43:26.763Z,62.72
2022-10-17T21:45:53.850Z,53.95
2022-10-17T21:48:20.927Z,55.72
2022-10-17T21:50:48.080Z,54.03
2022-10-17T21:55:51.135Z,49.30
2022-10-17T21:58:20.837Z,41.05
2022-10-17T22:00:53.236Z,45.83
2022-10-17T22:03:20.324Z,42.22
2022-10-17T22:05:47.508Z,70.50
2022-10-17T22:08:14.607Z,39.33
2022-10-17T22:10:43.284Z,49.75
2022-10-17T22:13:13.247Z,47.50
2022-10-17T22:15:40.298Z,44.17
2022-10-17T22:18:10.593Z,47.42
2022-10-17T22:20:40.795Z,38.90
2022-10-17T22:23:08.761Z,41.15
2022-10-17T22:25:38.368Z,50.53
2022-10-17T22:28:05.540Z,101.13
2022-10-17T22:30:32.801Z,133.65
2022-10-17T22:33:00.121Z,57.97
2022-10-17T22:35:27.432Z,44.42
2022-10-17T22:37:54.712Z,55.85
2022-10-17T22:40:24.321Z,41.20
2022-10-17T22:42:51.636Z,42.92
2022-10-17T22:45:19.143Z,51.58
2022-10-17T22:47:46.244Z,69.65
2022-10-17T22:50:13.062Z,71.43
2022-10-17T22:52:40.328Z,82.38
2022-10-17T22:55:09.971Z,53.42
2022-10-17T22:57:37.262Z,90.07
2022-10-17T23:00:06.090Z,81.60
2022-10-17T23:02:33.571Z,136.07
2022-10-17T23:05:01.011Z,116.05
2022-10-17T23:07:28.344Z,108.05
2022-10-17T23:09:55.819Z,52.90
2022-10-17T23:12:23.086Z,137.25
2022-10-17T23:14:50.171Z,126.07
2022-10-17T23:17:17.626Z,149.50
2022-10-17T23:19:45.133Z,169.27
2022-10-17T23:22:12.419Z,33.97
2022-10-17T23:24:39.503Z,41.35
2022-10-17T23:27:06.607Z,57.83
2022-10-17T23:29:34.357Z,75.18
2022-10-17T23:32:01.920Z,51.35
2022-10-17T23:34:31.298Z,68.60
2022-10-17T23:36:58.683Z,65.90
2022-10-17T23:39:25.818Z,41.47
2022-10-17T23:41:52.892Z,35.05
2022-10-17T23:44:20.010Z,46.63
2022-10-17T23:46:47.060Z,76.07
2022-10-17T23:49:14.212Z,90.70
2022-10-17T23:51:41.336Z,126.93
2022-10-17T23:54:08.421Z,102.80
2022-10-17T23:56:35.613Z,110.00
2022-10-17T23:59:02.749Z,150.88
